Time;durP1;ratioP1;P1;durP2;ratioP2;P2;SDS_P1;SDS_P2;PMS_P1;PMS_P2;Temp;Humidity;BMP_temperature;BMP_pressure;BME280_temperature;BME280_humidity;BME280_pressure;Samples;Min_cycle;Max_cycle;Signal;HPM_P1;HPM_P2
2023/08/05 00:01:34;;;;;;;7.03;3.28;;;14.50;99.90;;;13.46;100.00;101026.97;4925008;28;20131;-76
2023/08/05 00:03:59;;;;;;;6.90;2.90;;;14.40;99.90;;;13.34;100.00;101023.16;4914693;29;20051;-76
2023/08/05 00:06:30;;;;;;;3.25;1.58;;;14.30;99.90;;;13.22;100.00;101018.53;4916195;29;20130;-76
2023/08/05 00:08:56;;;;;;;475.23;12.80;;;14.20;99.90;;;13.05;100.00;101012.31;4918342;29;20069;-76
2023/08/05 00:11:21;;;;;;;4.43;2.35;;;14.10;99.90;;;12.95;100.00;101020.81;4917213;29;20586;-76
2023/08/05 00:13:47;;;;;;;4.97;2.40;;;14.00;99.90;;;12.87;100.00;101018.53;4902699;29;20126;-76
2023/08/05 00:16:14;;;;;;;3.70;1.95;;;13.90;99.90;;;12.80;100.00;101031.22;4907493;29;20114;-77
2023/08/05 00:18:39;;;;;;;1.75;1.50;;;13.80;99.90;;;12.76;100.00;101027.03;4909418;29;20047;-77
2023/08/05 00:21:08;;;;;;;13.00;3.58;;;13.70;99.90;;;12.69;100.00;101023.00;4901618;29;20039;-76
2023/08/05 00:23:33;;;;;;;2.72;1.20;;;13.70;99.90;;;12.61;100.00;101023.41;4913871;28;20111;-76
2023/08/05 00:25:59;;;;;;;11.98;1.10;;;13.60;99.90;;;12.52;100.00;101003.56;4915453;28;20579;-76
2023/08/05 00:28:25;;;;;;;554.65;13.00;;;13.50;99.90;;;12.39;100.00;101013.03;4939171;28;20111;-76
2023/08/05 00:30:51;;;;;;;3.20;1.27;;;13.40;99.90;;;12.27;100.00;101016.28;4899660;29;20059;-76
2023/08/05 00:33:16;;;;;;;212.43;5.93;;;13.40;99.90;;;12.20;100.00;101018.38;4941989;28;20129;-77
2023/08/05 00:35:42;;;;;;;2.60;1.40;;;13.30;99.90;;;12.14;100.00;101012.50;4916593;29;20146;-76
2023/08/05 00:38:08;;;;;;;5.30;1.65;;;13.20;99.90;;;12.09;100.00;101020.66;4920352;29;20122;-76
2023/08/05 00:40:33;;;;;;;4.20;1.15;;;13.20;99.90;;;12.07;100.00;101028.69;4916315;28;20145;-76
2023/08/05 00:42:59;;;;;;;11.60;3.70;;;13.20;99.90;;;12.06;100.00;101021.66;4894312;28;20127;-77
2023/08/05 00:45:25;;;;;;;8.00;2.60;;;13.10;99.90;;;12.05;100.00;101019.09;4915576;28;20046;-77
2023/08/05 00:47:52;;;;;;;7.43;3.33;;;13.10;99.90;;;12.09;100.00;101034.75;4899080;29;20502;-76
2023/08/05 00:50:18;;;;;;;15.88;5.80;;;13.20;99.90;;;12.13;100.00;101043.34;4917863;29;20035;-76
2023/08/05 00:52:44;;;;;;;14.07;6.47;;;13.20;99.90;;;12.21;100.00;101042.97;4915833;29;20126;-76
2023/08/05 00:55:10;;;;;;;13.13;6.70;;;13.20;99.90;;;12.28;100.00;101042.59;4908033;29;20393;-76
2023/08/05 00:57:36;;;;;;;14.73;4.78;;;13.30;99.90;;;12.37;100.00;101038.66;4895053;28;20039;-76
2023/08/05 01:00:03;;;;;;;16.98;6.30;;;13.40;99.90;;;12.43;100.00;101041.00;4949166;28;20102;-76
2023/08/05 01:02:28;;;;;;;16.48;6.60;;;13.40;99.90;;;12.48;100.00;101046.03;4898938;28;20043;-76
2023/08/05 01:04:54;;;;;;;638.00;17.88;;;13.40;99.90;;;12.37;100.00;101046.56;4921103;28;20152;-76
2023/08/05 01:07:22;;;;;;;534.22;17.08;;;13.30;99.90;;;12.20;100.00;101034.22;4947801;28;20048;-76
2023/08/05 01:09:49;;;;;;;11.00;2.28;;;13.20;99.90;;;12.13;100.00;101038.06;4903175;29;20050;-77
2023/08/05 01:12:15;;;;;;;3.10;1.60;;;13.20;99.90;;;12.08;100.00;101033.00;4891096;29;20051;-76
2023/08/05 01:14:40;;;;;;;3.30;1.63;;;13.10;99.90;;;12.04;100.00;101033.22;4914639;29;20045;-76
2023/08/05 01:17:08;;;;;;;11.57;4.63;;;13.10;99.90;;;12.03;100.00;101027.09;4924165;28;20602;-76
2023/08/05 01:19:36;;;;;;;16.10;6.57;;;13.10;99.90;;;12.03;100.00;101036.78;4928421;29;20107;-76
2023/08/05 01:22:26;;;;;;;14.07;8.43;;;13.10;99.90;;;12.06;100.00;101024.31;4919731;28;20058;-76
2023/08/05 01:25:14;;;;;;;24.98;8.35;;;13.10;99.90;;;12.10;100.00;101038.22;4914352;29;20032;-76
2023/08/05 01:27:40;;;;;;;25.58;8.43;;;13.20;99.90;;;12.13;100.00;101043.34;4911329;29;20104;-76
2023/08/05 01:30:07;;;;;;;12.63;5.80;;;13.20;99.90;;;12.16;100.00;101050.25;4894976;29;20110;-76
2023/08/05 01:32:35;;;;;;;20.73;6.93;;;13.20;99.90;;;12.16;100.00;101052.88;4935701;28;20097;-76
2023/08/05 01:35:01;;;;;;;23.08;9.18;;;13.20;99.90;;;12.17;100.00;101046.69;4900054;28;20169;-76
2023/08/05 01:37:26;;;;;;;19.55;8.30;;;13.20;99.90;;;12.19;100.00;101047.47;4911798;29;20118;-76
2023/08/05 01:39:52;;;;;;;26.25;9.18;;;13.30;99.90;;;12.22;100.00;101042.03;4936810;29;20122;-77
2023/08/05 01:42:18;;;;;;;23.48;9.70;;;13.30;99.90;;;12.21;100.00;101048.25;4905710;28;20093;-76
2023/08/05 01:44:44;;;;;;;14.20;6.93;;;13.30;99.90;;;12.22;100.00;101042.03;4926322;28;20039;-77
2023/08/05 01:47:09;;;;;;;22.80;8.98;;;13.30;99.90;;;12.23;100.00;101043.78;4925366;28;20086;-76
2023/08/05 01:49:35;;;;;;;20.90;8.43;;;13.30;99.90;;;12.23;100.00;101049.06;4918780;28;20119;-76
2023/08/05 01:52:04;;;;;;;21.10;7.95;;;13.30;99.90;;;12.20;100.00;101057.09;4935197;28;20094;-77
2023/08/05 01:54:30;;;;;;;10.38;5.05;;;13.20;99.90;;;12.12;100.00;101049.56;4918828;28;20075;-77
2023/08/05 01:56:56;;;;;;;8.82;2.50;;;13.20;99.90;;;12.05;100.00;101053.41;4911784;28;20475;-76
2023/08/05 01:59:21;;;;;;;5.50;2.92;;;13.10;99.90;;;11.96;100.00;101052.06;4920536;28;20059;-76
2023/08/05 02:01:48;;;;;;;88.07;3.80;;;13.00;99.90;;;11.87;100.00;101048.03;4940394;29;20083;-76
2023/08/05 02:04:14;;;;;;;849.00;21.65;;;12.90;99.90;;;11.74;100.00;101048.69;4933838;29;20042;-76
2023/08/05 02:06:43;;;;;;;636.10;17.27;;;12.80;99.90;;;11.58;100.00;101044.13;4931022;28;20050;-76
2023/08/05 02:09:11;;;;;;;6.72;2.05;;;12.70;99.90;;;11.50;100.00;101048.88;4891579;29;20545;-76
2023/08/05 02:11:36;;;;;;;5.00;2.38;;;12.60;99.90;;;11.39;100.00;101052.00;4903018;29;20064;-76
2023/08/05 02:14:02;;;;;;;4.60;3.05;;;12.50;99.90;;;11.33;100.00;101054.06;4916564;29;20170;-77
2023/08/05 02:16:28;;;;;;;12.93;3.05;;;12.40;99.90;;;11.26;100.00;101048.22;4894216;28;20063;-77
2023/08/05 02:18:54;;;;;;;3.97;2.10;;;12.30;99.90;;;11.21;100.00;101052.81;4945615;28;20035;-76
2023/08/05 02:21:26;;;;;;;7.18;2.88;;;12.30;99.90;;;11.13;100.00;101047.88;4908290;29;20047;-76
2023/08/05 02:23:52;;;;;;;2.22;1.67;;;12.20;99.90;;;11.09;100.00;101051.56;4900216;29;20039;-76
2023/08/05 02:26:18;;;;;;;2.88;1.95;;;12.20;99.90;;;11.06;100.00;101043.81;4896520;28;20042;-76
2023/08/05 02:28:46;;;;;;;7.65;3.05;;;12.20;99.90;;;11.08;100.00;101041.97;4947002;28;20043;-77
2023/08/05 02:31:18;;;;;;;12.57;5.95;;;12.20;99.90;;;11.12;100.00;101047.94;4934032;29;20496;-76
2023/08/05 02:33:44;;;;;;;8.35;3.47;;;12.20;99.90;;;11.11;100.00;101044.47;4914190;23;20663;-76
2023/08/05 02:36:10;;;;;;;10.43;4.57;;;12.20;99.90;;;11.12;100.00;101045.31;4958028;28;20034;-77
2023/08/05 02:38:36;;;;;;;8.77;4.72;;;12.20;99.90;;;11.13;100.00;101047.03;4936925;28;20077;-77
2023/08/05 02:41:09;;;;;;;17.42;7.30;;;12.20;99.90;;;11.17;100.00;101053.91;4949977;28;20059;-76
2023/08/05 02:43:35;;;;;;;10.32;6.30;;;12.30;99.90;;;11.23;100.00;101057.13;4920883;28;20047;-76
2023/08/05 02:46:01;;;;;;;11.05;5.93;;;12.30;99.90;;;11.29;100.00;101059.47;4921944;28;20130;-77
2023/08/05 02:48:27;;;;;;;19.35;5.97;;;12.40;99.90;;;11.36;100.00;101064.47;4952844;28;20074;-76
2023/08/05 02:50:54;;;;;;;11.18;5.70;;;13.30;99.90;;;11.41;100.00;101065.97;4923109;28;20087;-76
2023/08/05 02:53:21;;;;;;;11.50;6.60;;;12.50;99.90;;;11.46;100.00;101068.41;4920123;28;20047;-77
2023/08/05 02:55:47;;;;;;;13.02;7.22;;;12.50;99.90;;;11.53;100.00;101061.06;4919108;28;20147;-77
2023/08/05 02:58:15;;;;;;;10.13;5.85;;;12.60;99.90;;;11.61;100.00;101066.84;4929456;28;20084;-77
2023/08/05 03:00:41;;;;;;;19.50;8.30;;;12.70;99.90;;;11.71;100.00;101078.72;4942083;28;20067;-77
2023/08/05 03:03:11;;;;;;;9.77;5.65;;;12.80;99.90;;;11.81;100.00;101071.22;4900037;28;20050;-76
2023/08/05 03:05:37;;;;;;;14.70;5.82;;;12.90;99.90;;;11.91;100.00;101075.19;4922499;28;20043;-76
2023/08/05 03:08:05;;;;;;;17.13;6.80;;;12.90;99.90;;;12.02;100.00;101077.31;4925883;28;20042;-75
2023/08/05 03:10:31;;;;;;;12.32;6.30;;;13.00;99.90;;;12.10;100.00;101075.19;4911722;28;20043;-77
2023/08/05 03:12:57;;;;;;;15.27;8.43;;;13.10;99.90;;;12.19;100.00;101081.81;4934744;28;20114;-76
2023/08/05 03:15:26;;;;;;;14.20;5.75;;;13.20;99.90;;;12.27;100.00;101071.75;4910499;28;20138;-77
2023/08/05 03:17:55;;;;;;;14.77;6.38;;;13.30;99.90;;;12.33;100.00;101071.41;4920294;28;20122;-76
2023/08/05 03:20:30;;;;;;;14.15;5.85;;;13.30;99.90;;;12.40;100.00;101072.00;4895065;28;20055;-77
2023/08/05 03:22:57;;;;;;;11.93;5.35;;;13.30;99.90;;;12.44;100.00;101077.06;4935350;28;20434;-76
2023/08/05 03:25:26;;;;;;;17.75;6.88;;;13.40;99.90;;;12.51;100.00;101075.81;4937045;28;20047;-76
2023/08/05 03:27:52;;;;;;;13.43;5.53;;;13.50;99.90;;;12.57;100.00;101071.16;4917414;28;20035;-76
2023/08/05 03:30:18;;;;;;;15.18;6.07;;;13.50;99.90;;;12.61;100.00;101075.34;4928960;28;20118;-76
2023/08/05 03:32:47;;;;;;;9.25;4.90;;;13.60;99.90;;;12.62;100.00;101077.94;4918809;28;20058;-76
2023/08/05 03:35:13;;;;;;;17.80;5.82;;;13.60;99.90;;;12.61;100.00;101076.22;4921353;28;20106;-77
2023/08/05 03:37:41;;;;;;;17.60;5.88;;;13.60;99.90;;;12.61;100.00;101075.34;4916761;28;20066;-77
2023/08/05 03:40:08;;;;;;;19.20;4.90;;;13.60;99.90;;;12.59;100.00;101061.38;4911080;28;21816;-77
2023/08/05 03:42:34;;;;;;;14.25;5.15;;;13.60;99.90;;;12.56;100.00;101061.53;4929671;28;20034;-76
2023/08/05 03:44:59;;;;;;;21.38;7.00;;;13.50;99.90;;;12.52;100.00;101051.09;4933778;28;20034;-77
2023/08/05 03:47:26;;;;;;;13.80;6.82;;;13.50;99.90;;;12.50;100.00;101060.03;4907911;28;20166;-76
2023/08/05 03:49:52;;;;;;;10.25;5.10;;;13.50;99.90;;;12.50;100.00;101058.28;4933930;28;20078;-76
2023/08/05 03:52:20;;;;;;;11.23;4.90;;;13.50;99.90;;;12.49;100.00;101056.53;4931777;28;20106;-76
2023/08/05 03:54:46;;;;;;;195.57;5.13;;;13.40;99.90;;;12.50;100.00;101054.75;4940950;28;20059;-76
2023/08/05 03:57:11;;;;;;;643.90;15.43;;;13.50;99.90;;;12.49;100.00;101061.81;4900534;28;20083;-76
2023/08/05 03:59:37;;;;;;;34.17;3.95;;;13.40;99.90;;;12.48;100.00;101060.13;4926789;28;20169;-77
2023/08/05 04:02:03;;;;;;;6.75;3.63;;;13.50;99.90;;;12.48;100.00;101053.97;4903557;28;20139;-76
2023/08/05 04:04:29;;;;;;;3.83;2.78;;;13.40;99.90;;;12.46;100.00;101032.94;4919933;28;20042;-77
2023/08/05 04:06:55;;;;;;;4.43;2.88;;;13.50;99.90;;;12.47;100.00;101032.00;4902807;28;20042;-76
2023/08/05 04:09:24;;;;;;;65.53;5.72;;;13.40;99.90;;;12.49;100.00;101024.00;4914572;28;20109;-76
2023/08/05 04:11:50;;;;;;;4.47;2.60;;;13.40;99.90;;;12.51;100.00;101022.13;4914375;28;20039;-76
2023/08/05 04:14:19;;;;;;;3.42;2.47;;;13.50;99.90;;;12.55;100.00;101033.38;4908689;23;20470;-77
2023/08/05 04:16:47;;;;;;;16.88;3.75;;;13.50;99.90;;;12.61;100.00;101030.44;4930396;28;20102;-77
2023/08/05 04:19:18;;;;;;;8.77;3.92;;;13.50;99.90;;;12.70;100.00;101032.66;4909216;28;20055;-76
2023/08/05 04:21:47;;;;;;;5.07;3.20;;;13.60;99.90;;;12.83;100.00;101032.84;4925196;28;20540;-76
2023/08/05 04:24:14;;;;;;;6.10;2.58;;;13.70;99.90;;;12.96;100.00;101043.66;4917837;28;20827;-78
2023/08/05 04:26:42;;;;;;;6.85;2.72;;;13.80;99.90;;;13.11;100.00;101056.94;4903527;28;20054;-76
2023/08/05 04:29:09;;;;;;;10.77;2.60;;;13.90;99.90;;;13.33;100.00;101054.06;4912668;28;20035;-76
2023/08/05 04:31:38;;;;;;;6.18;2.88;;;14.30;99.90;;;13.80;100.00;101056.84;4917512;28;20078;-76
2023/08/05 04:34:04;;;;;;;5.72;2.95;;;14.50;99.90;;;14.10;100.00;101057.84;4904434;28;20475;-77
2023/08/05 04:36:30;;;;;;;11.75;4.60;;;14.80;99.90;;;14.56;99.36;101063.19;4912353;28;20102;-77
2023/08/05 04:39:03;;;;;;;8.50;4.32;;;15.20;99.90;;;15.13;97.34;101075.72;4919706;28;20256;-77
2023/08/05 04:41:30;;;;;;;12.48;4.55;;;15.60;99.90;;;15.53;94.82;101083.94;4924115;28;20048;-76
2023/08/05 04:43:57;;;;;;;12.00;4.95;;;15.90;99.90;;;15.76;93.25;101087.81;4890174;28;20035;-77
2023/08/05 04:46:22;;;;;;;10.75;4.75;;;16.30;99.90;;;16.53;90.31;101088.22;4921002;28;20070;-77
2023/08/05 04:48:48;;;;;;;9.80;4.72;;;16.90;99.90;;;17.32;86.32;101094.47;4933421;28;20047;-76
2023/08/05 04:51:16;;;;;;;10.27;4.50;;;17.60;99.90;;;19.01;81.15;101111.59;4922667;28;20494;-76
2023/08/05 04:53:43;;;;;;;9.02;4.32;;;19.30;99.90;;;22.08;70.23;101122.13;4927492;28;20414;-74
2023/08/05 04:56:10;;;;;;;9.35;3.85;;;20.90;99.90;;;23.78;64.40;101129.78;4907636;29;20050;-74
2023/08/05 04:58:36;;;;;;;6.30;3.28;;;22.50;99.90;;;25.96;58.47;101144.72;4933405;28;20451;-74
2023/08/05 05:01:02;;;;;;;14.02;3.50;;;24.00;99.90;;;27.20;55.05;101154.78;4929545;29;20040;-74
2023/08/05 05:03:27;;;;;;;9.10;3.10;;;25.20;99.90;;;28.71;51.99;101171.03;4927312;28;20056;-74
2023/08/05 05:05:56;;;;;;;8.35;3.67;;;26.40;99.90;;;29.90;48.92;101190.34;4930495;28;20114;-74
2023/08/05 05:08:23;;;;;;;7.75;2.97;;;26.40;99.90;;;30.52;47.74;101197.22;4911123;28;20063;-73
2023/08/05 05:10:48;;;;;;;7.07;3.20;;;28.00;99.90;;;31.45;45.83;101214.50;4946145;28;20045;-74
2023/08/05 05:13:14;;;;;;;9.23;2.58;;;28.70;99.90;;;32.24;44.26;101228.81;4908707;28;20032;-74
2023/08/05 05:15:40;;;;;;;13.35;2.90;;;29.40;99.90;;;33.00;42.50;101241.47;4936087;28;20035;-74
2023/08/05 05:18:06;;;;;;;5.78;2.70;;;30.00;99.90;;;33.14;41.81;101262.31;4917715;28;20024;-74
2023/08/05 05:20:36;;;;;;;7.45;2.38;;;30.10;99.90;;;32.52;42.83;101266.06;4894798;28;20135;-74
2023/08/05 05:23:01;;;;;;;8.07;2.78;;;30.10;99.90;;;32.60;42.75;101272.19;4922772;28;20411;-74
2023/08/05 05:25:27;;;;;;;12.05;2.70;;;30.00;98.90;;;32.27;42.43;101261.13;4909604;28;20042;-74
2023/08/05 05:27:53;;;;;;;10.40;2.30;;;29.80;98.20;;;31.34;43.34;101258.53;4921394;28;20130;-73
2023/08/05 05:30:19;;;;;;;12.23;2.33;;;28.80;98.30;;;28.55;47.44;101241.56;4921273;28;20161;-73
2023/08/05 05:32:45;;;;;;;18.38;3.10;;;27.70;99.40;;;26.54;51.26;101218.66;4938244;28;20040;-74
2023/08/05 05:35:10;;;;;;;12.45;2.70;;;26.60;99.90;;;25.15;54.10;101205.97;4926856;28;20051;-73
2023/08/05 05:37:39;;;;;;;7.95;2.30;;;25.50;99.90;;;24.00;56.90;101193.09;4911115;28;20119;-73
2023/08/05 05:40:06;;;;;;;9.82;2.55;;;24.50;99.90;;;22.94;59.49;101193.06;4936112;28;20123;-74
2023/08/05 05:42:32;;;;;;;12.90;2.83;;;23.50;99.90;;;22.08;61.58;101178.44;4937399;28;20040;-73
2023/08/05 05:44:57;;;;;;;12.10;2.65;;;22.80;99.90;;;21.37;63.96;101172.97;4935906;28;20134;-74
2023/08/05 05:47:23;;;;;;;18.15;2.50;;;22.10;99.90;;;20.87;65.74;101177.06;4928309;28;20122;-73
2023/08/05 05:49:49;;;;;;;8.98;2.58;;;21.70;99.90;;;20.50;67.45;101192.59;4938771;28;20040;-73
2023/08/05 05:52:18;;;;;;;11.18;2.78;;;21.20;99.90;;;20.24;68.69;101190.22;4939274;28;20032;-73
2023/08/05 05:54:46;;;;;;;13.52;2.83;;;21.00;99.90;;;20.10;69.46;101190.44;4896927;28;20027;-76
2023/08/05 05:57:11;;;;;;;13.90;2.72;;;20.80;99.90;;;20.08;69.60;101192.38;4935307;28;20027;-76
2023/08/05 05:59:39;;;;;;;12.38;3.20;;;20.70;99.90;;;20.07;70.00;101188.88;4936201;28;20056;-76
2023/08/05 06:02:07;;;;;;;9.82;2.60;;;20.60;99.90;;;19.97;70.02;101190.56;4923857;28;20076;-76
2023/08/05 06:04:38;;;;;;;12.13;2.70;;;20.50;99.90;;;19.99;70.17;101193.13;4918330;28;20043;-76
2023/08/05 06:07:04;;;;;;;11.88;2.85;;;20.60;99.90;;;19.97;70.20;101200.41;4921517;29;20039;-76
2023/08/05 06:09:31;;;;;;;10.88;2.83;;;20.50;99.90;;;19.95;69.74;101199.69;4927225;28;20167;-74
2023/08/05 06:11:58;;;;;;;10.60;2.50;;;20.50;99.90;;;20.01;69.54;101201.88;4910780;28;20046;-73
2023/08/05 06:14:24;;;;;;;10.15;3.05;;;20.60;99.90;;;20.19;69.40;101200.41;4934143;28;20087;-74
2023/08/05 06:16:49;;;;;;;10.88;2.50;;;20.70;99.90;;;20.61;68.85;101205.97;4929243;28;20051;-73
2023/08/05 06:19:15;;;;;;;9.18;2.47;;;21.10;99.90;;;21.97;65.65;101208.03;4899858;28;20039;-76
2023/08/05 06:21:41;;;;;;;7.95;2.22;;;21.60;99.90;;;22.28;64.06;101201.69;4912102;28;20048;-75
2023/08/05 06:24:07;;;;;;;9.57;2.40;;;22.00;99.90;;;22.51;62.53;101202.31;4934335;28;20114;-76
2023/08/05 06:26:33;;;;;;;10.50;2.50;;;22.40;99.90;;;23.43;59.74;101211.84;4930486;28;20082;-76
2023/08/05 06:28:59;;;;;;;12.45;2.67;;;22.90;99.90;;;24.45;57.57;101216.53;4920128;28;20090;-73
2023/08/05 06:31:25;;;;;;;8.73;2.35;;;23.70;99.90;;;25.67;55.08;101221.41;4917970;28;20031;-73
2023/08/05 06:33:51;;;;;;;7.90;2.17;;;24.80;99.90;;;27.22;51.91;101238.44;4916130;28;20101;-75
2023/08/05 06:36:16;;;;;;;8.75;2.35;;;25.60;99.90;;;27.11;51.42;101237.72;4930566;28;20051;-74
2023/08/05 06:38:44;;;;;;;11.65;2.40;;;26.10;99.90;;;27.13;51.29;101238.41;4938555;28;20035;-73
2023/08/05 06:41:10;;;;;;;8.73;2.08;;;26.40;99.90;;;27.23;50.37;101243.66;4922740;28;20039;-74
2023/08/05 06:43:36;;;;;;;8.60;1.95;;;26.70;99.90;;;27.46;50.02;101246.53;4931711;28;20126;-73
2023/08/05 06:46:02;;;;;;;7.55;2.10;;;26.90;99.90;;;28.27;48.88;101269.06;4915941;28;20098;-73
2023/08/05 06:48:28;;;;;;;6.72;2.10;;;27.60;99.90;;;29.17;46.06;101281.38;4902213;28;20110;-73
2023/08/05 06:50:53;;;;;;;9.98;2.10;;;27.60;99.90;;;30.41;44.62;101285.50;4936654;28;20058;-73
2023/08/05 06:53:19;;;;;;;8.00;1.98;;;29.40;98.50;;;31.52;41.95;101298.91;4932731;28;20130;-73
2023/08/05 06:55:45;;;;;;;8.82;1.65;;;30.20;97.00;;;31.15;42.95;101292.66;4909609;28;20410;-73
2023/08/05 06:58:11;;;;;;;5.32;1.85;;;30.40;94.90;;;30.92;42.01;101297.44;4932712;28;20108;-73
2023/08/05 07:00:37;;;;;;;8.82;2.17;;;30.50;95.80;;;31.32;41.82;101303.28;4911113;28;20044;-73
2023/08/05 07:03:03;;;;;;;7.65;1.83;;;30.80;94.20;;;31.39;41.04;101302.31;4932081;28;20043;-73
2023/08/05 07:05:29;;;;;;;12.05;2.00;;;30.90;93.90;;;31.42;41.13;101311.97;4906195;28;20058;-73
2023/08/05 07:07:55;;;;;;;9.80;1.90;;;30.60;92.50;;;30.05;41.99;101299.78;4909633;28;20057;-73
2023/08/05 07:10:21;;;;;;;8.77;2.00;;;29.90;93.30;;;28.53;44.05;101281.53;4924220;28;20046;-73
2023/08/05 07:12:46;;;;;;;5.82;1.90;;;28.90;93.50;;;27.49;45.84;101264.28;4927625;28;20059;-73
2023/08/05 07:15:12;;;;;;;7.05;1.58;;;28.00;95.40;;;26.36;47.96;101243.91;4927782;28;20130;-73
2023/08/05 07:17:40;;;;;;;6.60;1.80;;;27.80;96.50;;;25.65;48.81;101234.19;4934688;28;20118;-74
2023/08/05 07:20:07;;;;;;;4.78;1.52;;;26.10;96.80;;;24.51;51.09;101224.03;4909858;28;20082;-74
2023/08/05 07:22:33;;;;;;;8.75;1.77;;;25.10;97.20;;;23.48;52.73;101195.31;4904432;28;20042;-73
2023/08/05 07:24:58;;;;;;;10.13;2.00;;;24.60;99.40;;;23.43;54.15;101189.53;4907424;29;20106;-74
2023/08/05 07:27:24;;;;;;;8.55;1.52;;;24.20;99.90;;;23.33;54.25;101197.59;4925156;28;20041;-74
2023/08/05 07:29:50;;;;;;;7.32;2.35;;;24.00;99.90;;;23.36;54.16;101193.78;4933621;28;20040;-75
2023/08/05 07:32:16;;;;;;;11.00;2.10;;;24.00;99.90;;;23.52;53.86;101199.41;4923633;28;20158;-74
2023/08/05 07:34:46;;;;;;;9.07;2.13;;;23.90;99.90;;;23.24;54.70;101188.56;4935526;28;20491;-74
2023/08/05 07:37:14;;;;;;;10.32;2.20;;;23.50;99.90;;;22.54;56.72;101185.09;4925337;28;20039;-73
2023/08/05 07:39:45;;;;;;;5.72;1.80;;;23.30;99.90;;;22.50;57.27;101180.97;4915449;28;20040;-72
2023/08/05 07:42:13;;;;;;;9.88;2.13;;;23.30;99.90;;;23.10;56.07;101179.09;4916182;28;20043;-73
2023/08/05 07:44:40;;;;;;;10.10;2.10;;;23.40;99.90;;;23.09;56.05;101177.41;4915579;28;20035;-75
2023/08/05 07:47:06;;;;;;;9.52;1.90;;;23.40;99.90;;;22.72;54.29;101175.38;4917500;28;20043;-75
2023/08/05 07:49:32;;;;;;;11.80;1.80;;;23.40;99.90;;;22.92;54.70;101178.09;4935100;28;20032;-73
2023/08/05 07:51:58;;;;;;;9.38;1.90;;;23.70;99.90;;;23.94;52.79;101188.28;4927561;28;20062;-73
2023/08/05 07:54:24;;;;;;;8.55;1.70;;;24.30;99.90;;;24.92;51.47;101196.66;4916176;28;20135;-74
2023/08/05 07:56:51;;;;;;;8.85;1.92;;;25.10;99.90;;;25.63;49.70;101193.06;4934150;28;20110;-73
2023/08/05 07:59:19;;;;;;;11.05;1.77;;;25.60;98.40;;;25.34;49.10;101194.22;4921711;28;20047;-73
2023/08/05 08:01:46;;;;;;;7.32;2.22;;;25.30;97.90;;;24.61;49.96;101190.81;4932561;28;20048;-74
2023/08/05 08:04:14;;;;;;;9.65;1.90;;;24.80;98.30;;;23.95;51.53;101177.41;4925426;28;20069;-74
2023/08/05 08:06:45;;;;;;;7.15;1.73;;;24.40;99.60;;;23.25;53.74;101155.31;4927767;28;20047;-73
2023/08/05 08:09:13;;;;;;;11.18;1.80;;;23.70;99.90;;;22.42;55.53;101145.94;4913500;28;20043;-73
2023/08/05 08:11:40;;;;;;;8.57;1.80;;;23.10;99.90;;;21.82;56.55;101136.00;4923868;28;20121;-74
2023/08/05 08:14:05;;;;;;;8.05;1.67;;;22.60;99.90;;;21.29;57.50;101141.47;4921128;28;20121;-73
2023/08/05 08:16:32;;;;;;;5.32;1.60;;;22.20;99.90;;;21.03;58.31;101139.16;4917376;28;20051;-73
2023/08/05 08:18:58;;;;;;;5.20;1.83;;;21.90;99.90;;;20.79;58.31;101138.56;4916281;28;20043;-72
2023/08/05 08:21:24;;;;;;;7.32;1.60;;;21.60;99.90;;;20.65;58.63;101137.03;4931614;28;20054;-73
2023/08/05 08:23:49;;;;;;;9.98;1.90;;;21.50;99.90;;;20.54;58.17;101135.22;4922183;28;20491;-73
2023/08/05 08:26:15;;;;;;;3.50;1.20;;;21.30;99.90;;;20.36;58.56;101126.00;4917252;28;20503;-73
2023/08/05 08:28:41;;;;;;;10.68;1.83;;;21.20;99.90;;;20.11;60.53;101122.66;4883883;28;20568;-73
2023/08/05 08:31:07;;;;;;;6.32;1.38;;;21.00;99.90;;;20.13;59.72;101115.38;4913917;28;20059;-73
2023/08/05 08:33:33;;;;;;;7.20;1.63;;;20.90;99.90;;;20.09;58.33;101121.94;4928099;28;20147;-75
2023/08/05 08:35:59;;;;;;;5.15;1.40;;;20.90;99.90;;;20.15;58.15;101133.94;4941379;28;20122;-75
2023/08/05 08:38:25;;;;;;;2.92;1.33;;;20.90;99.90;;;19.98;58.16;101122.78;4930326;28;20492;-75
2023/08/05 08:40:58;;;;;;;10.77;1.50;;;20.70;99.90;;;19.75;56.48;101131.78;4922353;28;20050;-75
2023/08/05 08:43:23;;;;;;;5.60;1.30;;;20.60;99.90;;;19.77;56.96;101127.16;4929794;28;20048;-75
2023/08/05 08:45:56;;;;;;;4.18;1.10;;;20.60;99.90;;;19.97;56.39;101123.75;4930906;29;20554;-75
2023/08/05 08:48:24;;;;;;;9.00;2.15;;;20.80;99.90;;;20.15;55.81;101116.09;4938991;28;20525;-75
2023/08/05 08:50:52;;;;;;;5.65;1.63;;;20.80;99.90;;;20.13;55.54;101126.06;4928252;28;20026;-75
2023/08/05 08:53:20;;;;;;;5.13;1.38;;;21.00;99.90;;;20.60;54.30;101123.16;4924705;28;20035;-75
2023/08/05 08:55:50;;;;;;;3.38;0.95;;;21.40;99.90;;;21.37;53.47;101132.78;4912326;28;20523;-75
2023/08/05 08:58:16;;;;;;;5.70;1.48;;;21.90;99.90;;;21.97;52.75;101136.50;4930246;28;20035;-75
2023/08/05 09:00:42;;;;;;;4.70;1.23;;;22.40;99.80;;;22.19;51.77;101135.41;4928897;28;20176;-75
2023/08/05 09:03:10;;;;;;;6.15;1.40;;;22.70;99.80;;;22.25;51.87;101142.97;4925353;28;20039;-75
2023/08/05 09:05:52;;;;;;;4.72;1.33;;;22.60;99.00;;;21.98;52.06;101137.31;4915510;28;20051;-76
2023/08/05 09:08:19;;;;;;;10.93;2.03;;;22.50;99.20;;;21.79;52.77;101138.97;4914571;29;20088;-76
2023/08/05 09:10:45;;;;;;;6.18;1.52;;;22.50;99.80;;;22.04;52.61;101145.69;4906316;29;20038;-75
2023/08/05 09:13:16;;;;;;;6.72;1.45;;;22.60;99.90;;;22.18;52.91;101144.47;4930130;28;20051;-75
2023/08/05 09:15:41;;;;;;;5.03;1.60;;;22.50;98.50;;;21.82;52.21;101141.38;4896542;28;20047;-76
2023/08/05 09:18:08;;;;;;;7.05;1.55;;;22.50;99.50;;;21.84;53.20;101136.72;4937654;28;20527;-76
2023/08/05 09:20:38;;;;;;;4.63;1.38;;;22.60;99.90;;;22.24;53.13;101141.25;4920973;28;20566;-75
2023/08/05 09:23:08;;;;;;;5.72;1.48;;;22.80;99.90;;;22.42;52.86;101145.94;4929678;28;20039;-75
2023/08/05 09:25:43;;;;;;;8.23;1.35;;;22.90;99.50;;;22.21;52.43;101149.53;4921501;28;20090;-76
2023/08/05 09:28:10;;;;;;;7.10;1.40;;;22.70;99.70;;;22.19;52.85;101146.16;4919565;28;20039;-76
2023/08/05 09:30:36;;;;;;;9.07;1.80;;;22.90;99.90;;;22.76;52.94;101148.25;4928787;28;20178;-75
2023/08/05 09:33:06;;;;;;;8.93;1.80;;;23.20;99.90;;;23.08;52.79;101154.22;4938900;28;20040;-75
2023/08/05 09:35:34;;;;;;;6.75;1.67;;;23.50;99.70;;;23.50;51.40;101156.56;4911500;28;20075;-74
2023/08/05 09:38:01;;;;;;;6.05;1.73;;;23.70;98.40;;;23.30;50.54;101157.56;4937825;28;20042;-74
2023/08/05 09:40:32;;;;;;;5.82;1.20;;;23.80;97.10;;;23.46;49.45;101155.16;4930964;28;20070;-74
2023/08/05 09:43:03;;;;;;;7.50;2.03;;;23.90;97.70;;;23.47;50.14;101153.31;4910022;28;20118;-74
2023/08/05 09:45:33;;;;;;;5.47;1.63;;;24.10;98.20;;;23.85;50.46;101159.59;4939839;28;20159;-73
2023/08/05 09:48:10;;;;;;;6.22;1.50;;;24.40;98.80;;;24.36;50.56;101152.81;4937473;28;20043;-73
2023/08/05 09:50:43;;;;;;;6.38;1.60;;;24.70;99.10;;;24.54;50.75;101160.97;4928313;28;20042;-74
2023/08/05 09:53:18;;;;;;;11.52;1.70;;;24.80;96.90;;;24.08;50.03;101160.03;4936376;28;20046;-74
2023/08/05 09:55:47;;;;;;;5.13;1.33;;;24.50;96.20;;;23.44;50.44;101154.44;4918220;29;20035;-73
2023/08/05 09:58:17;;;;;;;10.50;1.83;;;24.10;96.60;;;23.00;50.95;101142.44;4936643;29;20046;-73
2023/08/05 10:00:52;;;;;;;4.40;1.60;;;24.10;97.90;;;23.51;50.76;101144.81;4938375;29;20123;-73
2023/08/05 10:03:26;;;;;;;7.15;1.58;;;24.10;97.70;;;23.57;50.51;101139.84;4924617;28;20452;-73
2023/08/05 10:05:57;;;;;;;7.00;1.60;;;24.10;98.10;;;23.61;50.82;101135.88;4938398;29;20039;-73